createdAt,value
2018-10-03T00:00:48.821Z,11.74
2018-10-03T00:01:50.164Z,11.83
2018-10-03T00:02:51.226Z,11.86
2018-10-03T00:03:51.735Z,11.99
2018-10-03T00:04:52.519Z,12
2018-10-03T00:05:53.582Z,12.03
2018-10-03T00:06:54.375Z,12.1
2018-10-03T00:07:55.183Z,12.03
2018-10-03T00:08:56.968Z,12.08
2018-10-03T00:09:58.033Z,11.81
2018-10-03T00:10:58.817Z,11.81
2018-10-03T00:11:59.600Z,11.88
2018-10-03T00:13:00.662Z,11.74
2018-10-03T00:14:01.166Z,11.88
2018-10-03T00:15:01.680Z,11.8
2018-10-03T00:16:02.185Z,11.76
2018-10-03T00:17:02.969Z,11.76
2018-10-03T00:18:03.201Z,11.77
2018-10-03T00:19:03.711Z,11.74
2018-10-03T00:20:04.221Z,11.77
2018-10-03T00:21:05.281Z,11.85
2018-10-03T00:22:06.513Z,11.8
2018-10-03T00:23:07.294Z,11.78
2018-10-03T00:24:08.938Z,11.73
2018-10-03T00:25:08.998Z,11.7
2018-10-03T00:26:09.786Z,11.7
2018-10-03T00:27:11.131Z,11.59
2018-10-03T00:28:12.087Z,11.67
2018-10-03T00:29:12.706Z,11.63
2018-10-03T00:30:13.216Z,11.59
2018-10-03T00:31:14.007Z,11.6
2018-10-03T00:32:15.071Z,11.58
2018-10-03T00:33:15.582Z,11.63
2018-10-03T00:34:16.808Z,11.6
2018-10-03T00:35:17.871Z,11.6
2018-10-03T00:36:18.378Z,11.74
2018-10-03T00:37:19.727Z,11.8
2018-10-03T00:38:20.386Z,11.76
2018-10-03T00:39:21.885Z,11.85
2018-10-03T00:40:23.672Z,11.85
2018-10-03T00:41:24.179Z,11.85
2018-10-03T00:42:24.965Z,11.88
2018-10-03T00:43:26.028Z,11.93
2018-10-03T00:44:26.534Z,11.99
2018-10-03T00:45:27.597Z,12
2018-10-03T00:46:28.105Z,11.99
2018-10-03T00:47:29.166Z,12.03
2018-10-03T00:48:29.699Z,12.03
2018-10-03T00:49:30.049Z,12.05
2018-10-03T00:50:31.683Z,12.07
2018-10-03T00:51:32.583Z,12.2
2018-10-03T00:52:33.096Z,12.28
2018-10-03T00:53:34.442Z,12.15
2018-10-03T00:54:34.509Z,12.23
2018-10-03T00:55:35.298Z,12.2
2018-10-03T00:56:36.361Z,12.18
2018-10-03T00:57:36.710Z,12.29
2018-10-03T00:58:38.510Z,12.18
2018-10-03T00:59:39.297Z,12.3
2018-10-03T01:00:39.808Z,12.32
2018-10-03T01:01:41.318Z,12.39
2018-10-03T01:02:41.828Z,12.4
2018-10-03T01:03:42.897Z,12.3
2018-10-03T01:04:44.132Z,12.26
2018-10-03T01:05:44.763Z,12.3
2018-10-03T01:06:45.551Z,12.39
2018-10-03T01:07:45.624Z,12.32
2018-10-03T01:08:46.418Z,12.29
2018-10-03T01:09:47.530Z,12.05
2018-10-03T01:10:49.046Z,11.99
2018-10-03T01:11:49.567Z,11.8
2018-10-03T01:12:50.407Z,11.6
2018-10-03T01:13:52.039Z,11.76
2018-10-03T01:14:52.556Z,11.8
2018-10-03T01:15:53.065Z,11.81
2018-10-03T01:16:54.410Z,11.83
2018-10-03T01:17:55.203Z,11.77
2018-10-03T01:18:56.160Z,11.78
2018-10-03T01:19:57.228Z,11.86
2018-10-03T01:20:58.015Z,11.88
2018-10-03T01:21:58.802Z,11.95
2018-10-03T01:23:00.591Z,12.05
2018-10-03T01:24:01.379Z,12.07
2018-10-03T01:25:01.888Z,12.1
2018-10-03T01:26:02.235Z,12.1
2018-10-03T01:27:03.470Z,12.23
2018-10-03T01:28:04.258Z,12.2
2018-10-03T01:29:05.225Z,12.18
2018-10-03T01:30:06.568Z,12.23
2018-10-03T01:31:07.356Z,12.26
2018-10-03T01:32:08.421Z,12.36
2018-10-03T01:33:09.493Z,12.29
2018-10-03T01:34:10.002Z,12.36
2018-10-03T01:35:10.237Z,12.37
2018-10-03T01:36:11.580Z,12.28
2018-10-03T01:37:12.385Z,12.26
2018-10-03T01:38:13.280Z,12.35
2018-10-03T01:39:14.128Z,12.37
2018-10-03T01:40:15.469Z,12.44
2018-10-03T01:41:15.258Z,12.47
2018-10-03T01:42:16.491Z,12.55
2018-10-03T01:43:18.670Z,12.51
2018-10-03T01:44:18.740Z,12.55
2018-10-03T01:45:19.805Z,12.61
2018-10-03T01:46:20.592Z,12.55
2018-10-03T01:47:21.665Z,12.48
2018-10-03T01:48:22.781Z,12.51
2018-10-03T01:49:23.299Z,12.51
2018-10-03T01:50:24.644Z,12.53
2018-10-03T01:51:25.715Z,12.51
2018-10-03T01:52:26.505Z,12.54
2018-10-03T01:53:27.571Z,12.53
2018-10-03T01:54:28.084Z,12.48
2018-10-03T01:55:28.596Z,12.54
2018-10-03T01:56:29.385Z,12.53
2018-10-03T01:57:30.457Z,12.54
2018-10-03T01:58:30.694Z,12.57
2018-10-03T01:59:32.068Z,12.51
2018-10-03T02:00:32.861Z,12.61
2018-10-03T02:01:34.486Z,12.5
2018-10-03T02:02:35.275Z,12.54
2018-10-03T02:03:36.066Z,12.44
2018-10-03T02:04:36.852Z,12.39
2018-10-03T02:05:37.926Z,12.36
2018-10-03T02:06:38.715Z,12.35
2018-10-03T02:07:39.779Z,12.36
2018-10-03T02:08:40.568Z,12.4
2018-10-03T02:09:41.085Z,12.37
2018-10-03T02:10:42.428Z,12.29
2018-10-03T02:11:43.221Z,12.36
2018-10-03T02:12:43.561Z,12.4
2018-10-03T02:13:44.070Z,12.36
2018-10-03T02:14:46.487Z,12.4
2018-10-03T02:15:46.314Z,12.4
2018-10-03T02:16:47.984Z,12.37
2018-10-03T02:17:48.051Z,12.5
2018-10-03T02:18:49.120Z,12.36
2018-10-03T02:19:49.825Z,12.36
2018-10-03T02:20:50.903Z,12.48
2018-10-03T02:21:51.691Z,12.4
2018-10-03T02:22:53.203Z,12.43
2018-10-03T02:23:54.267Z,12.43
2018-10-03T02:24:55.607Z,12.44
2018-10-03T02:25:56.399Z,12.47
2018-10-03T02:26:57.633Z,12.47
2018-10-03T02:27:59.256Z,12.43
2018-10-03T02:28:59.768Z,12.45
2018-10-03T02:30:01.880Z,12.39
2018-10-03T02:31:02.527Z,12.45
2018-10-03T02:32:03.885Z,12.48
2018-10-03T02:33:04.238Z,12.51
2018-10-03T02:34:05.577Z,12.51
2018-10-03T02:35:06.209Z,12.51
2018-10-03T02:36:07.399Z,12.54
2018-10-03T02:37:07.470Z,12.57
2018-10-03T02:38:08.095Z,12.62
2018-10-03T02:39:08.889Z,12.58
2018-10-03T02:40:09.711Z,12.62
2018-10-03T02:41:10.525Z,12.62
2018-10-03T02:42:12.151Z,12.57
2018-10-03T02:43:13.069Z,12.69
2018-10-03T02:44:13.856Z,12.63
2018-10-03T02:45:14.483Z,12.72
2018-10-03T02:46:15.833Z,12.72
2018-10-03T02:47:17.014Z,12.65
2018-10-03T02:48:17.639Z,12.65
2018-10-03T02:49:17.992Z,12.66
2018-10-03T02:50:18.785Z,12.66
2018-10-03T02:51:20.880Z,12.76
2018-10-03T02:52:21.946Z,12.73
2018-10-03T02:53:23.131Z,12.66
2018-10-03T02:54:22.927Z,12.68
2018-10-03T02:55:24.564Z,12.61
2018-10-03T02:56:25.464Z,12.68
2018-10-03T02:57:26.579Z,12.65
2018-10-03T02:58:27.210Z,12.69
2018-10-03T02:59:28.277Z,12.61
2018-10-03T03:00:29.383Z,12.61
2018-10-03T03:01:29.817Z,12.61
2018-10-03T03:02:30.920Z,12.54
2018-10-03T03:03:31.265Z,12.57
2018-10-03T03:04:31.894Z,12.61
2018-10-03T03:05:33.240Z,12.53
2018-10-03T03:06:33.589Z,12.61
2018-10-03T03:07:35.109Z,12.57
2018-10-03T03:08:36.091Z,12.53
2018-10-03T03:09:37.077Z,12.54
2018-10-03T03:10:37.607Z,12.53
2018-10-03T03:11:37.681Z,12.55
2018-10-03T03:12:39.530Z,12.57
2018-10-03T03:13:40.157Z,12.58
2018-10-03T03:14:41.089Z,12.53
2018-10-03T03:15:41.431Z,12.66
2018-10-03T03:16:42.066Z,12.75
2018-10-03T03:17:43.415Z,12.69
2018-10-03T03:18:43.208Z,12.65
2018-10-03T03:19:44.850Z,12.78
2018-10-03T03:20:45.642Z,12.66
2018-10-03T03:21:46.714Z,12.65
2018-10-03T03:22:48.185Z,12.65
2018-10-03T03:23:49.255Z,12.66
2018-10-03T03:24:50.048Z,12.63
2018-10-03T03:25:51.387Z,12.61
2018-10-03T03:26:52.015Z,12.8
2018-10-03T03:27:52.644Z,12.78
2018-10-03T03:28:53.268Z,12.72
2018-10-03T03:29:53.779Z,12.78
2018-10-03T03:30:54.917Z,12.68
2018-10-03T03:31:55.982Z,12.78
2018-10-03T03:32:57.235Z,12.78
2018-10-03T03:33:57.576Z,12.8
2018-10-03T03:34:58.369Z,12.81
2018-10-03T03:35:59.434Z,12.8
2018-10-03T03:37:01.063Z,12.8
2018-10-03T03:38:01.129Z,12.83
2018-10-03T03:39:01.755Z,12.8
2018-10-03T03:40:02.428Z,12.8
2018-10-03T03:41:03.212Z,12.78
2018-10-03T03:42:04.278Z,12.69
2018-10-03T03:43:05.621Z,12.55
2018-10-03T03:44:05.689Z,12.57
2018-10-03T03:45:06.310Z,12.61
2018-10-03T03:46:07.657Z,12.57
2018-10-03T03:47:07.724Z,12.53
2018-10-03T03:48:09.073Z,12.55
2018-10-03T03:49:09.417Z,12.51
2018-10-03T03:50:09.489Z,12.54
2018-10-03T03:51:09.874Z,12.55
2018-10-03T03:52:11.215Z,12.37
2018-10-03T03:53:12.002Z,12.5
2018-10-03T03:54:13.353Z,12.43
2018-10-03T03:55:13.702Z,12.4
2018-10-03T03:56:14.767Z,12.43
2018-10-03T03:57:16.710Z,12.33
2018-10-03T03:58:17.223Z,12.2
2018-10-03T03:59:18.010Z,12.18
2018-10-03T04:00:18.522Z,12.15
2018-10-03T04:01:03.304Z,12.08
2018-10-03T04:02:04.548Z,12.21
2018-10-03T04:03:04.899Z,12.11
2018-10-03T04:04:05.245Z,12.08
2018-10-03T04:05:05.871Z,12.21
2018-10-03T04:06:06.662Z,12.14
2018-10-03T04:07:07.286Z,12.07
2018-10-03T04:08:08.078Z,12.07
2018-10-03T04:09:08.701Z,12
2018-10-03T04:10:09.770Z,12
2018-10-03T04:11:10.671Z,11.88
2018-10-03T04:12:11.610Z,11.96
2018-10-03T04:13:12.508Z,11.86
2018-10-03T04:14:12.572Z,11.81
2018-10-03T04:15:13.921Z,11.85
2018-10-03T04:16:14.541Z,11.8
2018-10-03T04:17:16.163Z,11.88
2018-10-03T04:18:16.950Z,11.83
2018-10-03T04:19:18.182Z,11.81
2018-10-03T04:20:19.414Z,11.71
2018-10-03T04:21:20.758Z,11.78
2018-10-03T04:22:20.853Z,11.8
2018-10-03T04:23:21.651Z,11.91
2018-10-03T04:24:22.721Z,11.88
2018-10-03T04:25:23.794Z,11.97
2018-10-03T04:26:23.579Z,11.95
2018-10-03T04:27:24.924Z,11.99
2018-10-03T04:28:25.713Z,12.11
2018-10-03T04:29:27.054Z,12.05
2018-10-03T04:30:27.561Z,12.11
2018-10-03T04:31:28.351Z,12.14
2018-10-03T04:32:29.591Z,12.18
2018-10-03T04:33:30.931Z,12.2
2018-10-03T04:34:31.168Z,12.33
2018-10-03T04:35:33.051Z,12.32
2018-10-03T04:36:33.914Z,12.29
2018-10-03T04:37:34.425Z,12.3
2018-10-03T04:38:35.491Z,12.29
2018-10-03T04:39:35.560Z,12.26
2018-10-03T04:40:36.794Z,12.26
2018-10-03T04:41:37.306Z,12.32
2018-10-03T04:42:38.049Z,12.29
2018-10-03T04:43:38.114Z,12.12
2018-10-03T04:44:39.625Z,12.23
2018-10-03T04:45:40.411Z,12.21
2018-10-03T04:46:40.923Z,12.18
2018-10-03T04:47:42.265Z,12
2018-10-03T04:48:43.336Z,12.08
2018-10-03T04:49:44.680Z,12.08
2018-10-03T04:50:45.469Z,12.07
2018-10-03T04:51:46.254Z,12.07
2018-10-03T04:52:47.219Z,12.12
2018-10-03T04:53:49.057Z,12.17
2018-10-03T04:54:49.954Z,12.2
2018-10-03T04:55:51.020Z,12.26
2018-10-03T04:56:52.085Z,12.18
2018-10-03T04:57:52.871Z,12.18
2018-10-03T04:58:52.661Z,12.28
2018-10-03T04:59:53.728Z,12.28
2018-10-03T05:00:54.795Z,12.37
2018-10-03T05:01:55.865Z,12.44
2018-10-03T05:02:57.104Z,12.43
2018-10-03T05:03:58.172Z,12.4
2018-10-03T05:04:58.407Z,12.53
2018-10-03T05:06:00.028Z,12.53
2018-10-03T05:07:00.462Z,12.5
2018-10-03T05:08:01.604Z,12.44
2018-10-03T05:09:02.388Z,12.51
2018-10-03T05:10:03.181Z,12.54
2018-10-03T05:11:03.695Z,12.45
2018-10-03T05:12:04.772Z,12.43
2018-10-03T05:13:06.018Z,12.45
2018-10-03T05:14:06.812Z,12.5
2018-10-03T05:15:07.604Z,12.5
2018-10-03T05:16:08.675Z,12.54
2018-10-03T05:17:09.472Z,12.5
2018-10-03T05:18:11.820Z,12.43
2018-10-03T05:19:11.895Z,12.51
2018-10-03T05:20:13.132Z,12.47
2018-10-03T05:21:14.475Z,12.54
2018-10-03T05:22:15.265Z,12.53
2018-10-03T05:23:16.513Z,12.44
2018-10-03T05:24:17.303Z,12.54
2018-10-03T05:25:17.933Z,12.53
2018-10-03T05:26:17.716Z,12.44
2018-10-03T05:27:19.614Z,12.53
2018-10-03T05:28:20.684Z,12.48
2018-10-03T05:29:20.479Z,12.53
2018-10-03T05:30:21.715Z,12.48
2018-10-03T05:31:23.231Z,12.55
2018-10-03T05:32:24.294Z,12.39
2018-10-03T05:33:25.454Z,12.47
2018-10-03T05:34:25.937Z,12.5
2018-10-03T05:35:26.736Z,12.5
2018-10-03T05:36:27.808Z,12.5
2018-10-03T05:37:28.597Z,12.57
2018-10-03T05:38:29.942Z,12.43
2018-10-03T05:39:30.802Z,12.43
2018-10-03T05:40:31.981Z,12.43
2018-10-03T05:41:33.607Z,12.48
2018-10-03T05:42:33.130Z,12.5
2018-10-03T05:43:34.929Z,12.43
2018-10-03T05:44:35.289Z,12.44
2018-10-03T05:45:35.360Z,12.53
2018-10-03T05:46:36.154Z,12.54
2018-10-03T05:47:36.665Z,12.47
2018-10-03T05:48:38.129Z,12.48
2018-10-03T05:49:38.889Z,12.47
2018-10-03T05:50:39.682Z,12.5
2018-10-03T05:51:40.476Z,12.5
2018-10-03T05:52:41.128Z,12.48
2018-10-03T05:53:42.225Z,12.45
2018-10-03T05:54:43.359Z,12.57
2018-10-03T05:55:43.697Z,12.61
2018-10-03T05:56:44.043Z,12.62
2018-10-03T05:57:44.834Z,12.58
2018-10-03T05:58:45.628Z,12.61
2018-10-03T05:59:45.865Z,12.51
2018-10-03T06:00:46.940Z,12.55
2018-10-03T06:01:48.561Z,12.54
2018-10-03T06:02:50.350Z,12.57
2018-10-03T06:03:50.282Z,12.58
2018-10-03T06:04:51.630Z,12.58
2018-10-03T06:05:52.145Z,12.68
2018-10-03T06:06:53.218Z,12.66
2018-10-03T06:07:54.573Z,12.62
2018-10-03T06:08:55.642Z,12.61
2018-10-03T06:09:56.711Z,12.57
2018-10-03T06:10:56.947Z,12.69
2018-10-03T06:11:58.883Z,12.72
2018-10-03T06:13:00.272Z,12.65
2018-10-03T06:14:01.515Z,12.69
2018-10-03T06:15:02.586Z,12.68
2018-10-03T06:16:02.654Z,12.7
2018-10-03T06:17:03.724Z,12.8
2018-10-03T06:18:04.071Z,12.8
2018-10-03T06:19:05.142Z,12.91
2018-10-03T06:20:05.490Z,12.83
2018-10-03T06:21:06.294Z,12.98
2018-10-03T06:22:06.792Z,12.88
2018-10-03T06:23:07.306Z,12.9
2018-10-03T06:24:08.324Z,12.84
2018-10-03T06:25:09.395Z,12.84
2018-10-03T06:26:09.461Z,12.8
2018-10-03T06:27:09.977Z,12.8
2018-10-03T06:28:12.290Z,12.9
2018-10-03T06:29:12.196Z,12.78
2018-10-03T06:30:13.270Z,12.93
2018-10-03T06:31:14.619Z,12.99
2018-10-03T06:32:15.684Z,12.93
2018-10-03T06:33:16.810Z,12.88
2018-10-03T06:34:17.373Z,12.91
2018-10-03T06:35:18.001Z,12.94
2018-10-03T06:36:19.078Z,13.01
2018-10-03T06:37:19.419Z,13.11
2018-10-03T06:38:20.770Z,13.11
2018-10-03T06:39:21.889Z,13.13
2018-10-03T06:40:22.583Z,13.05
2018-10-03T06:41:23.451Z,13.05
2018-10-03T06:42:23.258Z,13.02
2018-10-03T06:43:24.048Z,13.02
2018-10-03T06:44:25.290Z,12.99
2018-10-03T06:45:26.384Z,13.13
2018-10-03T06:46:26.843Z,13.19
2018-10-03T06:47:27.077Z,13.21
2018-10-03T06:48:27.871Z,13.12
2018-10-03T06:49:28.385Z,13.27
2018-10-03T06:50:29.620Z,13.31
2018-10-03T06:51:30.133Z,13.26
2018-10-03T06:52:30.926Z,13.23
2018-10-03T06:53:32.275Z,13.39
2018-10-03T06:54:32.801Z,13.3
2018-10-03T06:55:33.421Z,13.23
2018-10-03T06:56:33.936Z,13.19
2018-10-03T06:57:35.574Z,13.16
2018-10-03T06:58:36.204Z,13.12
2018-10-03T06:59:36.600Z,13.12
2018-10-03T07:00:36.959Z,13.16
2018-10-03T07:01:38.311Z,13.2
2018-10-03T07:02:39.396Z,13.16
2018-10-03T07:03:39.635Z,13.17
2018-10-03T07:04:40.319Z,13.12
2018-10-03T07:05:41.221Z,13.2
2018-10-03T07:06:41.982Z,13.26
2018-10-03T07:07:43.340Z,13.31
2018-10-03T07:08:44.417Z,13.36
2018-10-03T07:09:45.487Z,13.26
2018-10-03T07:10:45.834Z,13.23
2018-10-03T07:11:46.234Z,13.17
2018-10-03T07:12:47.861Z,13.13
2018-10-03T07:13:48.376Z,13.19
2018-10-03T07:14:48.646Z,13.19
2018-10-03T07:15:49.722Z,13.21
2018-10-03T07:16:51.068Z,13.31
2018-10-03T07:17:51.696Z,13.23
2018-10-03T07:18:52.778Z,13.17
2018-10-03T07:19:53.294Z,13.3
2018-10-03T07:20:54.088Z,13.23
2018-10-03T07:21:54.322Z,13.27
2018-10-03T07:22:55.116Z,13.39
2018-10-03T07:23:55.914Z,13.27
2018-10-03T07:24:57.158Z,13.3
2018-10-03T07:25:57.446Z,13.36
2018-10-03T07:26:58.240Z,13.4
2018-10-03T07:27:58.754Z,13.31
2018-10-03T07:28:59.827Z,13.28
2018-10-03T07:30:01.188Z,13.37
2018-10-03T07:31:01.416Z,13.42
2018-10-03T07:32:02.496Z,13.43
2018-10-03T07:33:03.125Z,13.4
2018-10-03T07:34:04.306Z,13.43
2018-10-03T07:35:04.296Z,13.43
2018-10-03T07:36:04.810Z,13.46
2018-10-03T07:37:05.881Z,13.6
2018-10-03T07:38:06.952Z,13.54
2018-10-03T07:39:08.023Z,13.6
2018-10-03T07:40:08.373Z,13.55
2018-10-03T07:41:09.168Z,13.57
2018-10-03T07:42:09.962Z,13.61
2018-10-03T07:43:11.201Z,13.65
2018-10-03T07:44:12.923Z,13.58
2018-10-03T07:45:13.174Z,13.61
2018-10-03T07:46:14.245Z,13.65
2018-10-03T07:47:15.055Z,13.71
2018-10-03T07:48:15.411Z,13.71
2018-10-03T07:49:16.481Z,13.82
2018-10-03T07:50:17.559Z,13.75
2018-10-03T07:51:17.915Z,13.86
2018-10-03T07:52:18.707Z,13.87
2018-10-03T07:53:19.223Z,13.8
2018-10-03T07:54:20.297Z,13.8
2018-10-03T07:55:22.391Z,13.83
2018-10-03T07:56:23.550Z,13.82
2018-10-03T07:57:23.407Z,13.95
2018-10-03T07:58:24.759Z,13.97
2018-10-03T07:59:25.556Z,14.07
2018-10-03T08:00:26.633Z,13.98
2018-10-03T08:01:26.870Z,14.12
2018-10-03T08:02:27.672Z,14.05
2018-10-03T08:03:28.742Z,14.11
2018-10-03T08:04:29.817Z,14.05
2018-10-03T08:05:31.191Z,14.04
2018-10-03T08:06:30.982Z,14.11
2018-10-03T08:07:32.052Z,14.22
2018-10-03T08:08:32.565Z,14.2
2018-10-03T08:09:33.963Z,14.31
2018-10-03T08:10:35.035Z,14.31
2018-10-03T08:11:35.568Z,14.19
2018-10-03T08:12:36.637Z,14.2
2018-10-03T08:13:37.711Z,14.25
2018-10-03T08:14:38.792Z,14.33
2018-10-03T08:15:39.316Z,14.28
2018-10-03T08:16:40.389Z,14.41
2018-10-03T08:17:40.627Z,14.36
2018-10-03T08:18:41.979Z,14.37
2018-10-03T08:19:42.775Z,14.23
2018-10-03T08:20:43.573Z,14.25
2018-10-03T08:21:44.656Z,14.2
2018-10-03T08:22:45.730Z,14.19
2018-10-03T08:23:46.804Z,14.23
2018-10-03T08:24:48.434Z,14.25
2018-10-03T08:25:48.680Z,14.26
2018-10-03T08:26:49.748Z,14.31
2018-10-03T08:27:50.817Z,14.22
2018-10-03T08:28:51.612Z,14.16
2018-10-03T08:29:52.407Z,14.13
2018-10-03T08:30:52.924Z,14.13
2018-10-03T08:31:53.435Z,14.2
2018-10-03T08:32:54.832Z,14.16
2018-10-03T08:33:55.190Z,14.15
2018-10-03T08:34:55.260Z,14.2
2018-10-03T08:35:55.780Z,14.18
2018-10-03T08:36:57.124Z,14.33
2018-10-03T08:37:57.484Z,14.23
2018-10-03T08:38:57.998Z,14.31
2018-10-03T08:40:00.186Z,14.28
2018-10-03T08:41:00.545Z,14.41
2018-10-03T08:42:01.174Z,14.26
2018-10-03T08:43:01.245Z,14.31
2018-10-03T08:44:02.762Z,14.38
2018-10-03T08:45:03.555Z,14.26
2018-10-03T08:46:04.337Z,14.23
2018-10-03T08:47:05.686Z,14.31
2018-10-03T08:48:05.757Z,14.34
2018-10-03T08:49:06.664Z,14.34
2018-10-03T08:50:06.734Z,14.34
2018-10-03T08:51:07.806Z,14.31
2018-10-03T08:52:08.433Z,14.41
2018-10-03T08:53:09.062Z,14.51
2018-10-03T08:54:09.140Z,14.43
2018-10-03T08:55:10.776Z,14.37
2018-10-03T08:56:11.608Z,14.4
2018-10-03T08:57:12.402Z,14.45
2018-10-03T08:58:14.204Z,14.51
2018-10-03T08:59:14.954Z,14.58
2018-10-03T09:00:15.024Z,14.52
2018-10-03T09:01:16.645Z,14.62
2018-10-03T09:02:17.442Z,14.63
2018-10-03T09:03:17.516Z,14.58
2018-10-03T09:04:19.141Z,14.51
2018-10-03T09:05:19.655Z,14.55
2018-10-03T09:06:20.199Z,14.43
2018-10-03T09:07:21.550Z,14.52
2018-10-03T09:08:22.673Z,14.59
2018-10-03T09:09:23.199Z,14.52
2018-10-03T09:10:24.545Z,14.53
2018-10-03T09:11:25.932Z,14.53
2018-10-03T09:12:26.720Z,14.48
2018-10-03T09:13:27.233Z,14.55
2018-10-03T09:14:28.312Z,14.67
2018-10-03T09:15:28.830Z,14.71
2018-10-03T09:16:29.657Z,14.67
2018-10-03T09:17:30.728Z,14.7
2018-10-03T09:18:31.801Z,14.87
2018-10-03T09:19:32.152Z,14.82
2018-10-03T09:20:33.510Z,14.87
2018-10-03T09:21:34.994Z,14.94
2018-10-03T09:22:35.158Z,14.89
2018-10-03T09:23:36.229Z,14.94
2018-10-03T09:24:37.580Z,14.85
2018-10-03T09:25:37.383Z,14.93
2018-10-03T09:26:38.187Z,14.96
2018-10-03T09:27:38.549Z,14.81
2018-10-03T09:28:39.179Z,14.89
2018-10-03T09:29:40.083Z,14.79
2018-10-03T09:30:40.436Z,14.73
2018-10-03T09:31:41.231Z,14.62
2018-10-03T09:32:41.750Z,14.49
2018-10-03T09:33:42.827Z,14.61
2018-10-03T09:34:43.179Z,14.62
2018-10-03T09:35:44.254Z,14.59
2018-10-03T09:36:44.945Z,14.62
2018-10-03T09:37:46.020Z,14.74
2018-10-03T09:38:46.261Z,14.85
2018-10-03T09:39:47.340Z,14.81
2018-10-03T09:40:48.133Z,14.87
2018-10-03T09:41:48.648Z,14.99
2018-10-03T09:42:49.444Z,14.97
2018-10-03T09:43:51.439Z,15.05
2018-10-03T09:44:51.702Z,15.02
2018-10-03T09:45:52.776Z,15.08
2018-10-03T09:46:54.301Z,15
2018-10-03T09:47:55.932Z,15.08
2018-10-03T09:48:56.172Z,15.04
2018-10-03T09:49:57.967Z,15.08
2018-10-03T09:50:58.763Z,15
2018-10-03T09:51:59.279Z,15.12
2018-10-03T09:53:00.075Z,15.11
2018-10-03T09:54:00.593Z,15.18
2018-10-03T09:55:01.668Z,15.19
2018-10-03T09:56:02.482Z,15.17
2018-10-03T09:57:02.735Z,15.36
2018-10-03T09:58:04.359Z,15.47
2018-10-03T09:59:04.439Z,15.5
2018-10-03T10:00:05.234Z,15.41
2018-10-03T10:01:06.474Z,15.62
2018-10-03T10:02:07.552Z,15.73
2018-10-03T10:03:07.914Z,15.65
2018-10-03T10:04:08.709Z,15.73
2018-10-03T10:05:10.070Z,15.73
2018-10-03T10:06:10.312Z,15.78
2018-10-03T10:07:11.122Z,15.81
2018-10-03T10:08:11.196Z,15.73
2018-10-03T10:09:12.275Z,15.84
2018-10-03T10:10:14.638Z,15.85
2018-10-03T10:11:15.140Z,15.83
2018-10-03T10:12:15.375Z,15.83
2018-10-03T10:13:17.001Z,15.85
2018-10-03T10:14:17.914Z,15.84
2018-10-03T10:15:18.438Z,15.84
2018-10-03T10:16:19.789Z,15.92
2018-10-03T10:17:19.886Z,15.91
2018-10-03T10:18:20.686Z,15.81
2018-10-03T10:19:21.487Z,15.78
2018-10-03T10:20:22.837Z,15.83
2018-10-03T10:21:23.634Z,15.78
2018-10-03T10:22:23.985Z,15.63
2018-10-03T10:23:25.057Z,15.73
2018-10-03T10:24:25.139Z,15.59
2018-10-03T10:25:26.662Z,15.59
2018-10-03T10:26:28.458Z,15.6
2018-10-03T10:27:28.984Z,15.6
2018-10-03T10:28:30.613Z,15.67
2018-10-03T10:29:30.687Z,15.65
2018-10-03T10:30:30.489Z,15.6
2018-10-03T10:31:31.563Z,15.52
2018-10-03T10:32:33.515Z,15.55
2018-10-03T10:33:33.436Z,15.51
2018-10-03T10:34:34.230Z,15.47
2018-10-03T10:35:35.308Z,15.57
2018-10-03T10:36:35.407Z,15.55
2018-10-03T10:37:36.511Z,15.51
2018-10-03T10:38:37.482Z,15.48
2018-10-03T10:39:38.278Z,15.57
2018-10-03T10:40:41.043Z,15.63
2018-10-03T10:41:40.114Z,15.54
2018-10-03T10:42:41.208Z,15.52
2018-10-03T10:43:42.450Z,15.62
2018-10-03T10:44:44.127Z,15.6
2018-10-03T10:45:43.927Z,15.62
2018-10-03T10:46:45.088Z,15.6
2018-10-03T10:47:46.046Z,15.65
2018-10-03T10:48:46.119Z,15.65
2018-10-03T10:49:46.636Z,15.65
2018-10-03T10:50:47.429Z,15.66
2018-10-03T10:51:48.654Z,15.66
2018-10-03T10:52:48.904Z,15.69
2018-10-03T10:53:49.978Z,15.6
2018-10-03T10:54:51.048Z,15.66
2018-10-03T10:55:51.844Z,15.65
2018-10-03T10:56:52.486Z,15.69
2018-10-03T10:57:53.731Z,15.69
2018-10-03T10:58:55.085Z,15.66
2018-10-03T10:59:56.162Z,15.69
2018-10-03T11:00:56.957Z,15.8
2018-10-03T11:01:57.753Z,15.78
2018-10-03T11:02:57.993Z,15.83
2018-10-03T11:03:59.348Z,15.87
2018-10-03T11:04:59.867Z,15.88
2018-10-03T11:06:00.670Z,15.84
2018-10-03T11:07:02.461Z,15.78
2018-10-03T11:08:03.149Z,15.81
2018-10-03T11:09:03.668Z,15.75
2018-10-03T11:10:04.467Z,15.8
2018-10-03T11:11:05.261Z,15.76
2018-10-03T11:12:06.611Z,15.76
2018-10-03T11:13:07.406Z,15.85
2018-10-03T11:14:08.477Z,15.76
2018-10-03T11:15:08.826Z,15.7
2018-10-03T11:16:10.622Z,15.7
2018-10-03T11:17:10.859Z,15.67
2018-10-03T11:18:11.826Z,15.75
2018-10-03T11:19:12.618Z,15.67
2018-10-03T11:20:13.411Z,15.7
2018-10-03T11:21:13.766Z,15.75
2018-10-03T11:22:14.128Z,15.84
2018-10-03T11:23:14.372Z,15.8
2018-10-03T11:24:17.390Z,15.84
2018-10-03T11:25:16.680Z,15.84
2018-10-03T11:26:17.476Z,15.9
2018-10-03T11:27:18.832Z,15.85
2018-10-03T11:28:19.825Z,15.92
2018-10-03T11:29:20.898Z,15.94
2018-10-03T11:30:21.694Z,15.98
2018-10-03T11:31:22.490Z,16
2018-10-03T11:32:23.013Z,15.96
2018-10-03T11:33:23.812Z,15.92
2018-10-03T11:34:25.165Z,15.98
2018-10-03T11:35:25.683Z,15.92
2018-10-03T11:36:27.035Z,16.02
2018-10-03T11:37:27.392Z,15.91
2018-10-03T11:38:27.915Z,15.91
2018-10-03T11:39:29.273Z,16.02
2018-10-03T11:40:30.347Z,15.96
2018-10-03T11:41:30.702Z,15.88
2018-10-03T11:42:31.547Z,15.96
2018-10-03T11:43:32.352Z,15.81
2018-10-03T11:44:33.541Z,15.92
2018-10-03T11:45:34.059Z,15.88
2018-10-03T11:46:35.579Z,15.84
2018-10-03T11:47:36.211Z,15.84
2018-10-03T11:48:36.478Z,15.73
2018-10-03T11:49:37.550Z,15.87
2018-10-03T11:50:39.094Z,15.84
2018-10-03T11:51:38.437Z,15.84
2018-10-03T11:52:40.240Z,15.76
2018-10-03T11:53:40.315Z,15.85
2018-10-03T11:54:41.386Z,15.92
2018-10-03T11:55:41.735Z,16.03
2018-10-03T11:56:42.254Z,15.9
2018-10-03T11:57:42.773Z,15.92
2018-10-03T11:58:43.333Z,16.02
2018-10-03T11:59:43.686Z,15.91
2018-10-03T12:00:44.486Z,16.03
2018-10-03T12:01:45.132Z,16.06
2018-10-03T12:02:46.398Z,16.06
2018-10-03T12:03:47.374Z,16.03
2018-10-03T12:04:47.454Z,15.99
2018-10-03T12:05:47.973Z,15.98
2018-10-03T12:06:49.048Z,16.02
2018-10-03T12:07:50.126Z,16.05
2018-10-03T12:08:50.676Z,15.98
2018-10-03T12:09:51.472Z,15.98
2018-10-03T12:10:52.267Z,15.99
2018-10-03T12:11:53.342Z,15.88
2018-10-03T12:12:54.585Z,15.9
2018-10-03T12:13:55.658Z,15.88
2018-10-03T12:14:56.173Z,15.91
2018-10-03T12:15:58.087Z,15.98
2018-10-03T12:16:58.441Z,15.99
2018-10-03T12:17:59.352Z,16
2018-10-03T12:18:59.911Z,15.99
2018-10-03T12:20:00.989Z,16.03
2018-10-03T12:21:01.785Z,16.02
2018-10-03T12:22:02.024Z,16.03
2018-10-03T12:23:03.657Z,16.08
2018-10-03T12:24:04.564Z,16.05
2018-10-03T12:25:06.203Z,16.06
2018-10-03T12:26:06.795Z,16.02
2018-10-03T12:27:07.872Z,16.02
2018-10-03T12:28:08.667Z,16.18
2018-10-03T12:29:08.636Z,16.24
2018-10-03T12:30:09.993Z,16.26
2018-10-03T12:31:10.344Z,16.39
2018-10-03T12:32:11.703Z,16.49
2018-10-03T12:33:12.926Z,16.61
2018-10-03T12:34:13.269Z,16.57
2018-10-03T12:35:13.788Z,16.82
2018-10-03T12:36:14.862Z,16.74
2018-10-03T12:37:16.217Z,16.77
2018-10-03T12:38:17.570Z,16.82
2018-10-03T12:39:18.263Z,16.69
2018-10-03T12:40:19.342Z,16.76
2018-10-03T12:41:20.142Z,16.72
2018-10-03T12:42:21.494Z,16.66
2018-10-03T12:43:22.294Z,16.62
2018-10-03T12:44:23.369Z,16.55
2018-10-03T12:45:23.892Z,16.44
2018-10-03T12:46:25.258Z,16.49
2018-10-03T12:47:26.604Z,16.58
2018-10-03T12:48:26.677Z,16.49
2018-10-03T12:49:27.548Z,16.47
2018-10-03T12:50:29.346Z,16.61
2018-10-03T12:51:30.423Z,16.61
2018-10-03T12:52:31.226Z,16.54
2018-10-03T12:53:32.856Z,16.39
2018-10-03T12:54:34.073Z,16.5
2018-10-03T12:55:35.207Z,16.32
2018-10-03T12:56:36.282Z,16.16
2018-10-03T12:57:37.520Z,16.13
2018-10-03T12:58:38.874Z,16.03
2018-10-03T12:59:40.153Z,15.94
2018-10-03T13:00:40.945Z,15.94
2018-10-03T13:01:42.021Z,15.92
2018-10-03T13:02:42.653Z,15.9
2018-10-03T13:03:42.726Z,15.72
2018-10-03T13:04:44.086Z,15.72
2018-10-03T13:05:44.159Z,15.72
2018-10-03T13:06:44.957Z,15.75
2018-10-03T13:07:45.198Z,15.62